Time;durP1;ratioP1;P1;durP2;ratioP2;P2;SDS_P1;SDS_P2;PMS_P1;PMS_P2;Temp;Humidity;BMP_temperature;BMP_pressure;BME280_temperature;BME280_humidity;BME280_pressure;Samples;Min_cycle;Max_cycle;Signal;HPM_P1;HPM_P2
2022/02/09 00:09:20;;;;;;;14.55;7.43;;;;;;;;;;5051107;28;20036;-63
2022/02/09 00:17:37;;;;;;;13.13;6.00;;;;;;;;;;5055291;28;20487;-62
2022/02/09 00:23:48;;;;;;;;;;;;;;;;;;5055384;28;20021;-62
2022/02/09 01:56:28;;;;;;;11.57;5.60;;;;;;;;;;5053274;28;20036;-63
2022/02/09 01:58:55;;;;;;;13.75;6.43;;;;;;;;;;5052987;28;20029;-63
2022/02/09 02:01:21;;;;;;;17.30;6.43;;;;;;;;;;5053097;28;20028;-63
2022/02/09 02:03:47;;;;;;;11.20;5.43;;;;;;;;;;5052700;28;20064;-62
2022/02/09 02:06:15;;;;;;;12.15;5.95;;;;;;;;;;5052825;28;20025;-63
2022/02/09 02:08:41;;;;;;;13.60;5.65;;;;;;;;;;5052523;28;20043;-63
2022/02/09 02:16:40;;;;;;;12.40;5.88;;;;;;;;;;5030352;28;20035;-63
2022/02/09 02:19:20;;;;;;;10.38;4.00;;;;;;;;;;5030628;28;20045;-63
2022/02/09 02:21:58;;;;;;;12.43;5.50;;;;;;;;;;5030447;28;20028;-63
2022/02/09 03:18:30;;;;;;;11.63;5.38;;;;;;;;;;4951997;28;20046;-63
2022/02/09 03:20:55;;;;;;;11.95;5.55;;;;;;;;;;5009071;28;20092;-63
2022/02/09 03:26:28;;;;;;;16.10;7.28;;;;;;;;;;5009638;28;20137;-64
2022/02/09 03:56:11;;;;;;;19.73;6.45;;;;;;;;;;5050794;28;20551;-63
2022/02/09 03:58:34;;;;;;;16.20;6.30;;;;;;;;;;5051077;28;20090;-62
2022/02/09 04:01:00;;;;;;;12.50;5.82;;;;;;;;;;5066570;28;20025;-63
2022/02/09 04:03:26;;;;;;;15.32;5.90;;;;;;;;;;5050853;28;20053;-64
2022/02/09 04:05:52;;;;;;;12.68;5.43;;;;;;;;;;5051423;28;20033;-63
2022/02/09 04:08:21;;;;;;;15.68;5.30;;;;;;;;;;5051441;28;20036;-63
2022/02/09 04:11:12;;;;;;;11.85;5.28;;;;;;;;;;5050980;28;20408;-63
2022/02/09 04:16:46;;;;;;;17.17;7.18;;;;;;;;;;5050730;28;20036;-63
2022/02/09 04:19:37;;;;;;;18.40;7.05;;;;;;;;;;5051159;28;20027;-63
2022/02/09 04:54:39;;;;;;;10.35;5.13;;;;;;;;;;5028144;28;20053;-63
2022/02/09 04:57:13;;;;;;;11.23;5.88;;;;;;;;;;5028080;28;20041;-63
2022/02/09 05:28:42;;;;;;;;;;;;;;;;;;5054200;28;20036;-63
2022/02/09 05:31:09;;;;;;;11.95;4.93;;;;;;;;;;5053856;28;19905;-63
2022/02/09 05:33:36;;;;;;;10.23;4.35;;;;;;;;;;5053483;28;20102;-63
2022/02/09 05:36:02;;;;;;;7.28;4.32;;;;;;;;;;5053559;28;20044;-63
2022/02/09 05:38:28;;;;;;;11.15;4.68;;;;;;;;;;5053506;28;20029;-63
2022/02/09 05:40:54;;;;;;;13.25;7.88;;;;;;;;;;5053379;28;20025;-62
2022/02/09 05:43:23;;;;;;;15.35;9.45;;;;;;;;;;5053565;28;20035;-63
2022/02/09 05:51:09;;;;;;;14.68;6.72;;;;;;;;;;5053311;28;20392;-63
2022/02/09 05:53:58;;;;;;;15.65;7.47;;;;;;;;;;5052877;28;20079;-63
2022/02/09 05:56:46;;;;;;;15.57;6.28;;;;;;;;;;5053310;28;20463;-63
2022/02/09 06:01:47;;;;;;;13.15;5.47;;;;;;;;;;5052776;28;20432;-63
2022/02/09 06:04:13;;;;;;;13.05;6.45;;;;;;;;;;5052533;28;20049;-63
2022/02/09 06:06:40;;;;;;;13.35;6.68;;;;;;;;;;5053028;28;20036;-64
2022/02/09 06:09:08;;;;;;;16.65;9.02;;;;;;;;;;5052864;28;20033;-64
2022/02/09 06:19:50;;;;;;;20.08;11.63;;;;;;;;;;5052627;28;20039;-63
2022/02/09 06:22:16;;;;;;;21.10;10.32;;;;;;;;;;5052493;28;20021;-63
2022/02/09 06:24:43;;;;;;;20.90;11.07;;;;;;;;;;5052546;28;20028;-63
2022/02/09 06:27:10;;;;;;;26.05;15.88;;;;;;;;;;5052569;28;20021;-63
2022/02/09 06:29:37;;;;;;;27.27;15.45;;;;;;;;;;5052452;28;20054;-63
2022/02/09 06:32:08;;;;;;;24.35;13.32;;;;;;;;;;5052249;28;20100;-63
2022/02/09 06:34:38;;;;;;;23.60;13.57;;;;;;;;;;5052130;28;20489;-62
2022/02/09 06:37:39;;;;;;;22.92;13.13;;;;;;;;;;5052076;28;20029;-62
2022/02/09 06:39:59;;;;;;;17.77;9.90;;;;;;;;;;5051913;28;20068;-62
2022/02/09 06:42:27;;;;;;;16.52;9.10;;;;;;;;;;5049006;28;20025;-65
2022/02/09 06:45:02;;;;;;;20.35;10.50;;;;;;;;;;5052174;28;20503;-63
2022/02/09 06:47:29;;;;;;;22.15;11.57;;;;;;;;;;5051935;28;20021;-63
2022/02/09 06:50:04;;;;;;;15.88;7.40;;;;;;;;;;5051868;28;20465;-63
2022/02/09 06:52:31;;;;;;;14.60;8.20;;;;;;;;;;5056704;28;20036;-62
2022/02/09 06:58:17;;;;;;;15.63;6.30;;;;;;;;;;5052088;28;20108;-62
2022/02/09 07:00:34;;;;;;;16.48;8.80;;;;;;;;;;5049704;28;20037;-63
2022/02/09 07:03:00;;;;;;;12.63;7.28;;;;;;;;;;5044473;28;20569;-62
2022/02/09 07:05:27;;;;;;;13.20;6.75;;;;;;;;;;5055466;28;20045;-62
2022/02/09 07:07:53;;;;;;;11.40;5.88;;;;;;;;;;5056145;28;20078;-63
2022/02/09 07:10:19;;;;;;;14.20;7.03;;;;;;;;;;5053655;28;20459;-62
2022/02/09 07:12:48;;;;;;;13.63;7.50;;;;;;;;;;5053450;28;20025;-64
2022/02/09 07:15:22;;;;;;;11.82;6.45;;;;;;;;;;5056945;28;20132;-63
2022/02/09 07:17:52;;;;;;;12.57;5.68;;;;;;;;;;5057002;28;20051;-63
2022/02/09 07:20:23;;;;;;;12.63;5.78;;;;;;;;;;5050479;28;20033;-63
2022/02/09 07:22:53;;;;;;;12.40;5.78;;;;;;;;;;5038956;28;20021;-63
2022/02/09 07:25:26;;;;;;;11.60;5.50;;;;;;;;;;5033719;28;20084;-63
2022/02/09 07:27:53;;;;;;;13.77;5.80;;;;;;;;;;5031459;28;20060;-63
2022/02/09 07:30:22;;;;;;;12.45;5.47;;;;;;;;;;5030722;28;20037;-63
2022/02/09 07:32:51;;;;;;;11.68;5.10;;;;;;;;;;5033436;28;20069;-63
2022/02/09 07:35:17;;;;;;;11.55;6.10;;;;;;;;;;5037600;28;20056;-63
2022/02/09 07:37:43;;;;;;;11.90;6.43;;;;;;;;;;5039165;28;20083;-63
2022/02/09 07:40:11;;;;;;;14.05;6.40;;;;;;;;;;5033512;28;20029;-63
2022/02/09 07:42:44;;;;;;;13.23;6.85;;;;;;;;;;5032797;28;20166;-65
2022/02/09 07:45:46;;;;;;;16.40;8.20;;;;;;;;;;5030605;28;20031;-64
2022/02/09 07:51:12;;;;;;;11.70;6.90;;;;;;;;;;5036374;28;20680;-64
2022/02/09 07:53:46;;;;;;;14.48;6.95;;;;;;;;;;5031451;28;20560;-63
2022/02/09 07:56:12;;;;;;;14.57;6.50;;;;;;;;;;5035198;28;20472;-63
2022/02/09 07:58:38;;;;;;;11.82;6.35;;;;;;;;;;5039245;28;20022;-64
2022/02/09 08:01:04;;;;;;;12.45;5.65;;;;;;;;;;5034387;28;20033;-64
2022/02/09 08:03:30;;;;;;;12.07;5.82;;;;;;;;;;5030771;28;20115;-64
2022/02/09 08:05:56;;;;;;;21.75;9.52;;;;;;;;;;5030736;28;20033;-63
2022/02/09 08:08:29;;;;;;;15.98;6.57;;;;;;;;;;5033011;28;20080;-65
2022/02/09 08:11:09;;;;;;;12.30;6.47;;;;;;;;;;5036915;28;20114;-66
2022/02/09 08:23:36;;;;;;;17.70;7.57;;;;;;;;;;5031056;28;20092;-65
2022/02/09 08:26:06;;;;;;;14.00;6.32;;;;;;;;;;5021189;28;20044;-65
2022/02/09 08:33:16;;;;;;;9.90;5.32;;;;;;;;;;5050245;28;20033;-64
2022/02/09 08:35:43;;;;;;;15.27;6.20;;;;;;;;;;5053921;28;20022;-65
2022/02/09 08:38:09;;;;;;;12.07;6.22;;;;;;;;;;5054469;28;20067;-65
2022/02/09 08:40:36;;;;;;;12.43;5.90;;;;;;;;;;5049668;28;20566;-65
2022/02/09 08:43:03;;;;;;;13.80;5.88;;;;;;;;;;5037648;28;20040;-65
2022/02/09 08:45:29;;;;;;;19.60;6.82;;;;;;;;;;5035313;28;20063;-64
2022/02/09 08:47:56;;;;;;;13.07;6.50;;;;;;;;;;5042195;28;20222;-64
2022/02/09 08:50:22;;;;;;;12.00;6.60;;;;;;;;;;5033798;28;20025;-63
2022/02/09 08:52:50;;;;;;;13.85;6.20;;;;;;;;;;5034217;28;20033;-65
2022/02/09 08:55:16;;;;;;;13.43;6.10;;;;;;;;;;5034624;28;20041;-65
2022/02/09 08:57:43;;;;;;;13.82;6.45;;;;;;;;;;5032117;28;20021;-65
2022/02/09 09:00:20;;;;;;;13.38;6.72;;;;;;;;;;5033877;28;20163;-63
2022/02/09 09:02:51;;;;;;;12.95;6.78;;;;;;;;;;5032392;28;20136;-64
2022/02/09 09:05:26;;;;;;;13.18;6.95;;;;;;;;;;5033039;28;20492;-64
2022/02/09 09:08:06;;;;;;;13.00;6.57;;;;;;;;;;5032242;28;20034;-64
2022/02/09 09:10:42;;;;;;;14.57;7.28;;;;;;;;;;5034383;28;20053;-63
2022/02/09 10:02:37;;;;;;;15.10;8.02;;;;;;;;;;5035793;28;20029;-66
2022/02/09 10:05:36;;;;;;;13.02;6.97;;;;;;;;;;5039953;28;20404;-63
2022/02/09 10:33:49;;;;;;;12.73;4.93;;;;;;;;;;5041010;28;20084;-62
2022/02/09 10:36:18;;;;;;;7.40;4.35;;;;;;;;;;5032115;28;20583;-63
2022/02/09 10:38:45;;;;;;;9.88;4.38;;;;;;;;;;5032196;28;20025;-63
2022/02/09 10:41:16;;;;;;;10.38;5.40;;;;;;;;;;5033910;28;20029;-63
2022/02/09 10:43:45;;;;;;;6.88;3.97;;;;;;;;;;5036472;28;20401;-63
2022/02/09 10:46:19;;;;;;;14.98;6.95;;;;;;;;;;5051944;28;20033;-62
2022/02/09 10:48:53;;;;;;;11.57;5.88;;;;;;;;;;5044388;28;20029;-62
2022/02/09 10:51:41;;;;;;;8.27;4.40;;;;;;;;;;5051305;28;20033;-62
2022/02/09 10:54:09;;;;;;;9.13;4.38;;;;;;;;;;5045825;28;20534;-65
2022/02/09 10:56:36;;;;;;;16.17;7.72;;;;;;;;;;5041985;28;20619;-63
2022/02/09 10:59:04;;;;;;;11.73;5.57;;;;;;;;;;5047180;28;20037;-63
2022/02/09 11:01:30;;;;;;;9.73;4.70;;;;;;;;;;5039484;28;20021;-62
2022/02/09 11:03:57;;;;;;;12.27;6.38;;;;;;;;;;5040704;28;20128;-63
2022/02/09 11:06:26;;;;;;;6.35;3.90;;;;;;;;;;5039655;28;20061;-62
2022/02/09 11:08:52;;;;;;;9.35;4.57;;;;;;;;;;5039721;28;20052;-64
2022/02/09 11:11:22;;;;;;;12.32;6.05;;;;;;;;;;5043759;28;20528;-64
2022/02/09 11:13:49;;;;;;;11.68;5.38;;;;;;;;;;5059527;28;20455;-64
2022/02/09 11:16:17;;;;;;;8.27;4.00;;;;;;;;;;5040415;28;20018;-63
2022/02/09 11:18:43;;;;;;;15.48;7.03;;;;;;;;;;5041605;28;20021;-65
2022/02/09 11:21:13;;;;;;;10.02;5.10;;;;;;;;;;5041569;28;20083;-64
2022/02/09 11:23:58;;;;;;;11.90;5.47;;;;;;;;;;5041141;28;20025;-63
2022/02/09 11:34:51;;;;;;;9.85;4.85;;;;;;;;;;5041534;28;20040;-64
2022/02/09 11:37:27;;;;;;;13.30;4.90;;;;;;;;;;5038851;28;20021;-63
2022/02/09 11:39:56;;;;;;;8.80;4.72;;;;;;;;;;5042244;28;20159;-64
2022/02/09 11:43:06;;;;;;;11.15;4.30;;;;;;;;;;5040653;28;20075;-62
2022/02/09 11:45:42;;;;;;;8.70;4.57;;;;;;;;;;5038909;28;20041;-64
2022/02/09 11:51:32;;;;;;;14.73;7.40;;;;;;;;;;5040912;28;20099;-63
2022/02/09 12:11:06;;;;;;;7.53;4.55;;;;;;;;;;5053056;28;20107;-64
2022/02/09 12:13:53;;;;;;;11.43;5.03;;;;;;;;;;5054826;28;20049;-65
2022/02/09 12:19:01;;;;;;;9.07;5.35;;;;;;;;;;5054676;28;20029;-63
2022/02/09 12:21:40;;;;;;;11.18;4.90;;;;;;;;;;5070113;28;20024;-62
2022/02/09 12:24:18;;;;;;;7.43;4.68;;;;;;;;;;5054490;28;20373;-64
2022/02/09 12:27:03;;;;;;;10.57;5.90;;;;;;;;;;5053806;28;20071;-64
2022/02/09 12:29:37;;;;;;;11.07;5.63;;;;;;;;;;5053824;28;20127;-64
2022/02/09 12:32:20;;;;;;;13.82;5.05;;;;;;;;;;5054236;28;20021;-63
2022/02/09 12:34:54;;;;;;;8.15;5.35;;;;;;;;;;5054508;28;20041;-64
2022/02/09 12:37:20;;;;;;;12.05;6.30;;;;;;;;;;5054496;28;20492;-64
2022/02/09 12:39:53;;;;;;;11.32;6.35;;;;;;;;;;5054316;28;20021;-63
2022/02/09 12:42:20;;;;;;;9.90;5.72;;;;;;;;;;5054118;28;20037;-64
2022/02/09 12:44:59;;;;;;;9.55;5.68;;;;;;;;;;5054138;28;20377;-64
2022/02/09 12:47:29;;;;;;;11.23;5.93;;;;;;;;;;5054375;28;20079;-64
2022/02/09 12:49:55;;;;;;;9.60;5.72;;;;;;;;;;5054096;28;20033;-64
2022/02/09 12:52:30;;;;;;;29.13;13.32;;;;;;;;;;5054041;28;20460;-64
2022/02/09 12:55:04;;;;;;;48.53;21.17;;;;;;;;;;5053504;28;20090;-63
2022/02/09 12:57:38;;;;;;;28.10;14.23;;;;;;;;;;5054015;28;20025;-64
2022/02/09 13:00:06;;;;;;;77.60;36.63;;;;;;;;;;5053908;28;20040;-63
2022/02/09 13:02:42;;;;;;;58.92;27.00;;;;;;;;;;5053793;28;20041;-64
2022/02/09 13:05:08;;;;;;;23.35;12.20;;;;;;;;;;5053620;28;20514;-63
2022/02/09 13:07:34;;;;;;;92.13;42.88;;;;;;;;;;5054051;28;20025;-63
2022/02/09 13:10:00;;;;;;;40.28;18.80;;;;;;;;;;5053717;28;20029;-64
2022/02/09 13:12:27;;;;;;;14.27;8.18;;;;;;;;;;5053752;28;20024;-64
2022/02/09 13:14:59;;;;;;;11.13;6.13;;;;;;;;;;5054063;28;20457;-63
2022/02/09 13:17:40;;;;;;;;;;;;;;;;;;5054349;28;20035;-64
2022/02/09 13:20:42;;;;;;;11.05;6.70;;;;;;;;;;5053355;28;19951;-63
2022/02/09 13:23:23;;;;;;;14.55;6.85;;;;;;;;;;5053269;28;20120;-63
2022/02/09 13:26:14;;;;;;;8.63;6.35;;;;;;;;;;5053485;28;20040;-63
2022/02/09 14:10:35;;;;;;;11.30;6.00;;;;;;;;;;5030216;28;20547;-63
2022/02/09 14:48:57;;;;;;;13.18;6.80;;;;;;;;;;5029631;28;20033;-64
2022/02/09 14:51:33;;;;;;;13.32;6.32;;;;;;;;;;5029097;28;20041;-63
2022/02/09 14:56:57;;;;;;;12.23;7.13;;;;;;;;;;5014108;28;20125;-63
2022/02/09 15:02:38;;;;;;;15.27;7.15;;;;;;;;;;5029376;28;20394;-63
2022/02/09 15:07:58;;;;;;;11.23;6.90;;;;;;;;;;5029389;28;20040;-63
2022/02/09 15:10:34;;;;;;;13.25;7.60;;;;;;;;;;5029355;28;20037;-63
2022/02/09 15:13:15;;;;;;;12.50;6.75;;;;;;;;;;5029275;28;20040;-62
2022/02/09 15:16:01;;;;;;;12.85;6.30;;;;;;;;;;5029382;28;20048;-62
2022/02/09 15:23:44;;;;;;;11.55;6.47;;;;;;;;;;5031247;28;20029;-62
2022/02/09 15:26:11;;;;;;;11.20;6.00;;;;;;;;;;5031141;28;20030;-63
2022/02/09 15:28:37;;;;;;;10.50;5.68;;;;;;;;;;5031190;28;20075;-62
2022/02/09 15:33:37;;;;;;;10.70;5.70;;;;;;;;;;5031145;28;20045;-64
2022/02/09 15:36:07;;;;;;;11.18;5.70;;;;;;;;;;5031149;28;20018;-61
2022/02/09 15:38:44;;;;;;;11.77;5.85;;;;;;;;;;5031368;28;20094;-61
2022/02/09 16:05:38;;;;;;;15.82;6.40;;;;;;;;;;5051069;28;20065;-65
2022/02/09 16:10:41;;;;;;;11.85;6.35;;;;;;;;;;5050518;28;20036;-63
2022/02/09 16:38:11;;;;;;;14.48;7.65;;;;;;;;;;5026480;28;20459;-63
2022/02/09 16:46:15;;;;;;;14.13;8.15;;;;;;;;;;5027475;28;20108;-64
2022/02/09 16:48:48;;;;;;;15.18;8.45;;;;;;;;;;5027639;28;20080;-64
2022/02/09 16:51:20;;;;;;;16.38;8.70;;;;;;;;;;5033331;28;20043;-64
2022/02/09 16:53:55;;;;;;;19.15;9.75;;;;;;;;;;5046991;28;20534;-63
2022/02/09 17:15:38;;;;;;;37.92;19.30;;;;;;;;;;5033459;28;20091;-63
2022/02/09 17:20:49;;;;;;;39.45;20.40;;;;;;;;;;5033704;28;20040;-64
2022/02/09 17:23:15;;;;;;;50.85;24.73;;;;;;;;;;5033007;28;20036;-63
2022/02/09 17:25:42;;;;;;;50.78;27.52;;;;;;;;;;5033282;28;20026;-63
2022/02/09 17:28:10;;;;;;;58.80;30.10;;;;;;;;;;5032891;28;20024;-63
2022/02/09 17:33:17;;;;;;;60.92;30.38;;;;;;;;;;5033262;28;20032;-64
2022/02/09 17:36:03;;;;;;;59.83;32.25;;;;;;;;;;5033309;28;20384;-64
2022/02/09 17:38:50;;;;;;;62.88;32.88;;;;;;;;;;5032937;28;20469;-62
2022/02/09 17:57:44;;;;;;;58.85;30.88;;;;;;;;;;5032799;28;20461;-63
2022/02/09 18:00:17;;;;;;;60.03;34.08;;;;;;;;;;5032402;28;20037;-64
2022/02/09 18:02:47;;;;;;;59.58;33.00;;;;;;;;;;5032485;28;20022;-64
2022/02/09 18:08:28;;;;;;;72.10;38.88;;;;;;;;;;5009313;28;20129;-65
2022/02/09 18:29:59;;;;;;;143.82;72.30;;;;;;;;;;5049471;28;20064;-64
2022/02/09 19:02:19;;;;;;;138.23;71.80;;;;;;;;;;4970305;28;20533;-64
2022/02/09 19:04:49;;;;;;;133.25;66.53;;;;;;;;;;4969882;28;20522;-64
2022/02/09 19:18:34;;;;;;;142.43;71.30;;;;;;;;;;4970347;28;20603;-64
2022/02/09 19:26:13;;;;;;;138.15;71.07;;;;;;;;;;4968953;28;20081;-64
2022/02/09 19:48:10;;;;;;;101.25;51.30;;;;;;;;;;5050109;28;20545;-63
2022/02/09 19:53:39;;;;;;;94.45;47.08;;;;;;;;;;5034024;28;20075;-64
2022/02/09 19:56:19;;;;;;;109.15;53.03;;;;;;;;;;5050540;28;20430;-64
2022/02/09 19:58:55;;;;;;;106.07;55.33;;;;;;;;;;5048758;28;20029;-63
2022/02/09 20:01:23;;;;;;;111.63;58.47;;;;;;;;;;5050735;28;20025;-64
2022/02/09 20:03:49;;;;;;;101.80;52.72;;;;;;;;;;5050518;28;20053;-64
2022/02/09 20:06:15;;;;;;;102.60;52.45;;;;;;;;;;5050828;28;20389;-64
2022/02/09 20:08:42;;;;;;;101.55;53.75;;;;;;;;;;5050815;28;20426;-64
2022/02/09 20:11:10;;;;;;;96.53;50.33;;;;;;;;;;5050516;28;20079;-64
2022/02/09 20:13:36;;;;;;;102.90;53.60;;;;;;;;;;5049977;28;20061;-64
2022/02/09 20:16:02;;;;;;;97.50;50.75;;;;;;;;;;5046265;28;20071;-64
2022/02/09 20:18:31;;;;;;;82.95;44.25;;;;;;;;;;5045961;28;20029;-64
2022/02/09 20:20:57;;;;;;;91.55;44.35;;;;;;;;;;5050975;28;20032;-63
2022/02/09 20:23:24;;;;;;;87.13;44.20;;;;;;;;;;5050116;28;20025;-64
2022/02/09 20:25:50;;;;;;;85.10;45.40;;;;;;;;;;5050553;28;20040;-65
2022/02/09 20:28:17;;;;;;;81.43;44.60;;;;;;;;;;5049985;28;20028;-64
2022/02/09 20:30:53;;;;;;;88.00;45.65;;;;;;;;;;5051425;28;20490;-64
2022/02/09 20:33:24;;;;;;;90.18;44.17;;;;;;;;;;5053692;28;20756;-64
2022/02/09 20:35:51;;;;;;;80.13;41.40;;;;;;;;;;5054086;28;20516;-63
2022/02/09 20:38:23;;;;;;;72.65;38.15;;;;;;;;;;5053760;28;20025;-63
2022/02/09 20:40:56;;;;;;;74.97;39.88;;;;;;;;;;5054119;28;20021;-63
2022/02/09 20:43:24;;;;;;;77.68;40.60;;;;;;;;;;5053784;28;20025;-63
2022/02/09 20:45:54;;;;;;;83.85;42.00;;;;;;;;;;5053776;28;20025;-63
2022/02/09 20:48:25;;;;;;;84.00;42.25;;;;;;;;;;5053514;28;20025;-64
2022/02/09 20:50:52;;;;;;;85.30;41.83;;;;;;;;;;5054023;28;20063;-66
2022/02/09 20:53:19;;;;;;;80.90;41.05;;;;;;;;;;5053723;28;20051;-65
2022/02/09 20:55:46;;;;;;;80.50;42.45;;;;;;;;;;5053489;28;20071;-62
2022/02/09 20:58:12;;;;;;;85.47;45.75;;;;;;;;;;5053824;28;20469;-65
2022/02/09 21:00:54;;;;;;;80.57;43.22;;;;;;;;;;5054084;28;20082;-66
2022/02/09 21:06:12;;;;;;;72.88;39.10;;;;;;;;;;5053919;28;20083;-66
2022/02/09 21:21:37;;;;;;;70.25;36.45;;;;;;;;;;5053604;28;20511;-65
2022/02/09 21:45:49;;;;;;;55.40;26.85;;;;;;;;;;5030438;28;20026;-65
2022/02/09 21:53:54;;;;;;;65.15;33.20;;;;;;;;;;5030287;28;20080;-66
2022/02/09 21:56:31;;;;;;;67.30;32.40;;;;;;;;;;5030325;28;20516;-65
2022/02/09 22:16:15;;;;;;;66.85;33.95;;;;;;;;;;5031029;28;20122;-66
2022/02/09 22:20:56;;;;;;;73.70;37.28;;;;;;;;;;5052164;28;20044;-65
2022/02/09 22:28:21;;;;;;;62.50;31.80;;;;;;;;;;5051702;28;20024;-64
2022/02/09 22:55:16;;;;;;;37.15;19.80;;;;;;;;;;5050652;28;20116;-64
2022/02/09 22:57:53;;;;;;;36.78;18.45;;;;;;;;;;5051374;28;20029;-63
2022/02/09 23:03:28;;;;;;;32.53;17.48;;;;;;;;;;5051137;28;20377;-64
2022/02/09 23:09:39;;;;;;;40.58;21.10;;;;;;;;;;5051720;28;20123;-64
2022/02/09 23:22:49;;;;;;;48.60;24.75;;;;;;;;;;5051142;28;20132;-64
2022/02/09 23:54:25;;;;;;;30.20;15.32;;;;;;;;;;5030680;28;20051;-64
